UHMM 242100Z 00000MPS 9999 OVC008 10/09 Q1008 R10/70D NOSIG RMK MT OBSC QFE741 R28/26002MPS
QNH:(hPa/inHg/mmHg)1008 / 29.77 / 756
QFE:(hPa/inHg/mmHg)987 / 29.14 / 740
Temperature10
Dew Point9
Visibility> 10000
Weather
Cloud CoverOVC (800);
Transition Altitude10000 ft.
Transition LevelFL120
SQUAWK